Parkrose, Oregon
Current Conditions -  °F | °C
As of 7:53 PM on Wednesday 26 Nov 2014 (Local Time) from KTTD Reporting Station
Broken Clouds Broken Clouds  
Wind Chill: 56°   Ceiling: 6000
Heat Index: 56°   Visibility: 10mi
Dew Point: 50°   Wind: 5mph
Humidity: 80%   Direction: 70°ENE
Pressure: 30.02"   Gusts: NA
Location:  45.5423°N, 122.5°W
Report Text: KTTD 270353Z 07004KT 10SM BKN060 13/10 A3002 RMK AO2 SLP164 T01330100
Loading
Personal Weather Stations






























Interactive Weather Map New forecast layout! Learn more

10-Day Weather Forecast

Advertisements
Track Severe Weather on mobile